Time;durP1;ratioP1;P1;durP2;ratioP2;P2;SDS_P1;SDS_P2;PMS_P1;PMS_P2;Temp;Humidity;BMP_temperature;BMP_pressure;BME280_temperature;BME280_humidity;BME280_pressure;Samples;Min_cycle;Max_cycle;Signal;HPM_P1;HPM_P2
2023/09/06 03:57:40;;;;;;;6.03;3.53;;;;;;;14.59;100.00;101148.56;5432436;28;20081;-84
2023/09/06 04:00:44;;;;;;;5.15;3.97;;;;;;;14.50;100.00;101149.66;5276655;33;35503;-84
2023/09/06 04:03:50;;;;;;;6.57;3.75;;;;;;;14.56;100.00;101151.66;5261795;33;35292;-84
2023/09/06 04:06:54;;;;;;;6.82;3.97;;;;;;;14.53;100.00;101154.72;5270721;33;33544;-84
2023/09/06 04:10:01;;;;;;;3.67;3.35;;;;;;;14.49;100.00;101147.97;5259564;33;33767;-84
2023/09/06 04:13:11;;;;;;;4.00;3.55;;;;;;;14.45;100.00;101155.63;5248135;33;33942;-84
2023/09/06 04:16:14;;;;;;;3.58;3.28;;;;;;;14.45;100.00;101152.94;5271899;33;34303;-84
2023/09/06 04:19:17;;;;;;;4.15;3.75;;;;;;;14.44;100.00;101153.09;5272021;33;35198;-84
2023/09/06 04:22:20;;;;;;;5.12;3.60;;;;;;;14.45;100.00;101154.78;5259421;33;33874;-84
2023/09/06 04:25:24;;;;;;;4.15;3.17;;;;;;;14.56;100.00;101151.66;5265190;33;34305;-84
2023/09/06 04:28:27;;;;;;;14.90;3.60;;;;;;;14.78;100.00;101162.63;5277751;33;33795;-84
2023/09/06 04:31:32;;;;;;;5.68;3.72;;;;;;;14.69;100.00;101165.41;5270274;33;34007;-84
2023/09/06 04:34:35;;;;;;;4.95;3.60;;;;;;;14.76;100.00;101173.63;5268129;33;33392;-84
2023/09/06 04:37:38;;;;;;;6.07;3.30;;;;;;;14.90;100.00;101178.22;5279624;33;34530;-84
2023/09/06 04:40:43;;;;;;;6.18;3.45;;;;;;;14.90;100.00;101169.25;5282119;33;34419;-84
2023/09/06 04:43:47;;;;;;;7.20;3.65;;;;;;;14.88;100.00;101174.84;5289939;33;34908;-84
2023/09/06 04:46:50;;;;;;;5.37;3.17;;;;;;;15.00;100.00;101179.81;5289345;33;34553;-84
2023/09/06 04:49:53;;;;;;;4.10;3.17;;;;;;;14.99;100.00;101181.69;5264781;33;34033;-84
2023/09/06 04:52:57;;;;;;;6.47;3.53;;;;;;;15.01;100.00;101186.94;5289194;33;33730;-84
2023/09/06 04:56:03;;;;;;;5.20;3.55;;;;;;;15.07;100.00;101178.06;5265504;33;34427;-84
2023/09/06 04:59:08;;;;;;;5.05;3.53;;;;;;;15.09;100.00;101179.56;5288308;33;33891;-87
2023/09/06 05:02:11;;;;;;;5.75;3.67;;;;;;;15.20;100.00;101184.47;5289254;33;33605;-87
2023/09/06 05:05:15;;;;;;;4.85;3.35;;;;;;;15.31;100.00;101187.75;5289527;33;34096;-88
2023/09/06 05:08:20;;;;;;;8.25;3.90;;;;;;;15.40;100.00;101192.87;5265369;33;33507;-85
2023/09/06 05:11:23;;;;;;;6.03;3.67;;;;;;;15.45;100.00;101189.59;5264786;33;33475;-84
2023/09/06 05:14:27;;;;;;;4.03;3.30;;;;;;;15.56;100.00;101190.97;5276668;33;33481;-84
2023/09/06 05:17:33;;;;;;;5.90;3.78;;;;;;;15.68;100.00;101197.62;5276721;33;33737;-84
2023/09/06 05:20:38;;;;;;;5.22;3.67;;;;;;;15.76;100.00;101189.34;5264653;33;33822;-84
2023/09/06 05:23:42;;;;;;;6.78;3.45;;;;;;;15.94;100.00;101190.78;5276599;33;33859;-84
2023/09/06 05:26:45;;;;;;;6.10;3.80;;;;;;;16.13;100.00;101194.75;5264168;33;33614;-84
2023/09/06 05:29:49;;;;;;;5.95;3.33;;;;;;;16.22;100.00;101193.59;5276064;33;33751;-84
2023/09/06 05:32:56;;;;;;;4.47;3.45;;;;;;;16.35;100.00;101195.56;5260255;33;33648;-84
2023/09/06 05:36:00;;;;;;;5.68;3.60;;;;;;;16.49;100.00;101200.09;5288846;33;35170;-84
2023/09/06 05:39:06;;;;;;;10.20;3.62;;;;;;;16.41;100.00;101190.22;5276024;33;34515;-84
2023/09/06 05:42:09;;;;;;;5.45;2.90;;;;;;;16.51;100.00;101196.13;5279584;33;34054;-84
2023/09/06 05:45:13;;;;;;;6.40;3.47;;;;;;;16.55;100.00;101194.72;5288162;33;34988;-84
2023/09/06 05:48:16;;;;;;;5.40;3.33;;;;;;;16.61;100.00;101192.22;5264469;33;33514;-84
2023/09/06 05:51:19;;;;;;;4.78;3.00;;;;;;;16.73;100.00;101201.50;5260605;33;35245;-84
2023/09/06 05:54:22;;;;;;;9.77;3.90;;;;;;;16.89;100.00;101198.53;5258200;33;33820;-84
2023/09/06 05:57:26;;;;;;;6.68;3.33;;;;;;;17.07;100.00;101195.28;5261029;33;33958;-84
2023/09/06 06:00:30;;;;;;;5.50;3.12;;;;;;;17.16;100.00;101196.81;5264702;33;33953;-84
2023/09/06 06:03:33;;;;;;;6.40;3.50;;;;;;;17.28;100.00;101188.91;5287889;33;34653;-84
2023/09/06 06:06:36;;;;;;;6.72;3.50;;;;;;;17.44;100.00;101194.03;5286656;33;33758;-84
2023/09/06 06:09:40;;;;;;;5.15;3.10;;;;;;;17.62;100.00;101189.91;5264178;33;33435;-84
2023/09/06 06:12:43;;;;;;;4.05;3.10;;;;;;;17.80;100.00;101194.78;5276859;33;33846;-84
2023/09/06 06:15:46;;;;;;;5.62;3.60;;;;;;;18.00;100.00;101197.56;5289031;33;33810;-84
2023/09/06 06:18:49;;;;;;;4.43;3.55;;;;;;;18.11;100.00;101194.25;5265840;33;34529;-84
2023/09/06 06:21:54;;;;;;;5.50;3.03;;;;;;;18.32;100.00;101199.50;5277181;33;33841;-84
2023/09/06 06:25:02;;;;;;;3.50;3.03;;;;;;;18.43;100.00;101194.44;5262889;33;34653;-84
2023/09/06 06:28:06;;;;;;;6.47;3.03;;;;;;;18.48;100.00;101198.22;5283442;33;33991;-84
2023/09/06 06:31:09;;;;;;;5.90;3.58;;;;;;;18.74;100.00;101204.75;5296385;33;33724;-84
2023/09/06 06:34:14;;;;;;;7.28;3.37;;;;;;;18.88;100.00;101197.41;5254605;33;34355;-84
2023/09/06 06:37:17;;;;;;;3.15;2.85;;;;;;;18.92;99.83;101210.37;5263332;33;34138;-84
2023/09/06 06:40:20;;;;;;;7.53;3.25;;;;;;;19.02;98.78;101208.06;5262899;33;33622;-84
2023/09/06 06:43:23;;;;;;;6.00;3.17;;;;;;;19.19;96.89;101215.81;5263797;33;34266;-84
2023/09/06 06:46:30;;;;;;;4.15;2.60;;;;;;;19.44;95.65;101218.66;5276958;33;34984;-85
2023/09/06 06:49:33;;;;;;;5.78;3.08;;;;;;;19.65;93.91;101214.81;5282000;33;35053;-84
2023/09/06 06:52:37;;;;;;;6.37;3.15;;;;;;;19.74;93.48;101223.59;5261951;33;33763;-84
2023/09/06 06:55:40;;;;;;;7.47;3.35;;;;;;;19.87;92.18;101227.09;5259399;33;33686;-84
2023/09/06 06:58:43;;;;;;;4.00;2.95;;;;;;;19.97;90.64;101221.16;5260900;33;34736;-88
2023/09/06 07:01:47;;;;;;;4.35;3.17;;;;;;;19.96;89.15;101222.22;5257308;33;33256;-89
2023/09/06 07:04:51;;;;;;;4.55;3.10;;;;;;;20.07;89.62;101220.69;5289724;33;33962;-88
2023/09/06 07:07:54;;;;;;;4.07;3.03;;;;;;;20.28;88.88;101220.34;5276145;33;35257;-85
2023/09/06 07:10:59;;;;;;;3.30;2.70;;;;;;;20.57;90.46;101213.41;5300546;33;33407;-85
2023/09/06 07:14:02;;;;;;;5.30;3.17;;;;;;;20.75;87.55;101215.34;5289718;33;33913;-84
2023/09/06 07:17:05;;;;;;;4.43;3.00;;;;;;;20.95;85.65;101211.59;5260779;33;33941;-85
2023/09/06 07:20:09;;;;;;;4.20;3.10;;;;;;;21.09;86.08;101207.66;5260085;33;33425;-84
2023/09/06 07:23:12;;;;;;;5.22;3.30;;;;;;;21.23;83.18;101213.78;5277219;33;33881;-84
2023/09/06 07:26:15;;;;;;;3.35;2.60;;;;;;;21.32;84.45;101204.19;5276612;33;33509;-84
2023/09/06 07:29:18;;;;;;;3.62;2.83;;;;;;;21.36;84.00;101202.72;5289525;33;34562;-84
2023/09/06 07:32:21;;;;;;;5.25;3.10;;;;;;;21.36;82.47;101194.50;5277540;33;33793;-84
2023/09/06 07:35:24;;;;;;;3.37;2.70;;;;;;;21.37;81.69;101196.19;5290575;33;35239;-84
2023/09/06 07:38:27;;;;;;;4.32;3.10;;;;;;;21.62;81.21;101198.81;5270360;33;34403;-85
2023/09/06 07:41:34;;;;;;;7.68;3.12;;;;;;;21.71;80.18;101196.59;5260422;33;33906;-85
2023/09/06 07:44:37;;;;;;;6.68;3.05;;;;;;;21.87;79.79;101203.31;5288418;33;34106;-85
2023/09/06 07:47:40;;;;;;;4.20;2.95;;;;;;;21.90;78.93;101202.84;5265341;33;33398;-85
2023/09/06 07:50:43;;;;;;;3.75;3.03;;;;;;;22.07;78.83;101212.09;5281813;33;33414;-85
2023/09/06 07:53:46;;;;;;;5.57;3.03;;;;;;;22.17;78.35;101206.06;5288399;33;33501;-85
2023/09/06 07:56:49;;;;;;;4.72;3.03;;;;;;;22.25;78.22;101204.91;5288889;33;35404;-85
2023/09/06 07:59:52;;;;;;;5.60;3.47;;;;;;;22.45;77.98;101199.94;5297281;33;33633;-84
2023/09/06 08:02:55;;;;;;;9.32;3.60;;;;;;;22.67;77.50;101205.69;5279530;33;34736;-84
2023/09/06 08:05:59;;;;;;;5.97;3.45;;;;;;;22.73;75.89;101204.75;5256530;33;34868;-84
2023/09/06 08:09:02;;;;;;;5.03;3.35;;;;;;;22.88;77.12;101215.25;5275360;33;34506;-84
2023/09/06 08:12:06;;;;;;;3.30;3.00;;;;;;;22.86;76.62;101212.72;5278408;33;35242;-84
2023/09/06 08:15:10;;;;;;;3.55;2.80;;;;;;;22.87;75.79;101216.28;5273479;33;34520;-83
2023/09/06 08:18:13;;;;;;;9.88;3.53;;;;;;;22.82;76.78;101219.78;5264298;33;34083;-84
2023/09/06 08:21:16;;;;;;;5.10;2.70;;;;;;;23.16;75.47;101217.25;5267736;33;34520;-83
2023/09/06 08:24:19;;;;;;;3.95;3.00;;;;;;;23.39;74.74;101216.37;5259110;33;34096;-84
2023/09/06 08:27:22;;;;;;;3.92;3.35;;;;;;;23.44;73.31;101218.41;5247578;33;34308;-84
2023/09/06 08:30:25;;;;;;;4.55;3.20;;;;;;;23.45;72.82;101212.66;5253348;33;33175;-84
2023/09/06 08:33:29;;;;;;;5.37;3.00;;;;;;;23.46;73.33;101217.09;5276803;33;34043;-84
2023/09/06 08:36:32;;;;;;;4.68;3.42;;;;;;;23.73;73.62;101217.41;5292267;33;33352;-84
2023/09/06 08:39:35;;;;;;;3.53;2.85;;;;;;;24.00;71.56;101208.56;5287450;33;34235;-84
2023/09/06 08:42:38;;;;;;;5.95;2.60;;;;;;;23.90;70.75;101208.38;5287127;33;35407;-84
2023/09/06 08:45:42;;;;;;;5.90;3.22;;;;;;;23.82;71.28;101208.75;5278548;33;34053;-84
2023/09/06 08:48:47;;;;;;;3.90;2.75;;;;;;;23.87;70.32;101204.19;5294551;33;33896;-84
2023/09/06 08:51:51;;;;;;;5.68;3.50;;;;;;;24.07;70.42;101203.72;5275215;33;34149;-84
2023/09/06 08:54:54;;;;;;;5.85;3.10;;;;;;;24.44;69.89;101195.03;5263661;33;34385;-84
2023/09/06 08:57:57;;;;;;;6.75;3.37;;;;;;;24.25;69.31;101197.19;5289087;33;35006;-84
2023/09/06 09:01:06;;;;;;;4.55;2.95;;;;;;;24.35;68.49;101199.25;5290366;33;33861;-84
2023/09/06 09:04:09;;;;;;;6.43;3.03;;;;;;;24.53;69.75;101192.69;5276541;33;33557;-84
2023/09/06 09:07:14;;;;;;;4.22;3.10;;;;;;;24.72;68.34;101193.28;5289390;33;33519;-84
2023/09/06 09:10:20;;;;;;;4.40;2.85;;;;;;;24.79;66.44;101197.50;5275930;33;33986;-89
2023/09/06 09:13:23;;;;;;;6.57;3.28;;;;;;;24.86;65.86;101194.56;5262642;33;34119;-88
2023/09/06 09:16:26;;;;;;;5.45;2.90;;;;;;;24.93;65.38;101199.94;5258491;33;33461;-85
2023/09/06 09:19:29;;;;;;;4.78;2.90;;;;;;;25.15;65.42;101194.47;5271026;33;34546;-84
2023/09/06 09:22:37;;;;;;;4.18;2.83;;;;;;;25.27;61.46;101196.03;5273649;33;34320;-84
2023/09/06 09:25:48;;;;;;;5.35;2.85;;;;;;;25.40;62.86;101191.22;5287916;33;34081;-84
2023/09/06 09:28:51;;;;;;;5.18;2.90;;;;;;;25.73;65.16;101184.69;5277647;33;34213;-84
2023/09/06 09:32:03;;;;;;;4.60;2.50;;;;;;;25.83;62.77;101182.09;5271226;33;34440;-85
2023/09/06 09:35:10;;;;;;;3.53;2.60;;;;;;;26.00;62.13;101176.44;5276974;33;34013;-85
2023/09/06 09:38:13;;;;;;;4.15;2.33;;;;;;;26.23;57.19;101178.03;5287558;33;34663;-83
2023/09/06 09:41:16;;;;;;;2.65;2.12;;;;;;;26.26;57.49;101174.75;5283744;33;34249;-84
2023/09/06 09:44:19;;;;;;;4.18;2.70;;;;;;;26.16;57.12;101174.66;5274801;33;32608;-83
2023/09/06 09:47:22;;;;;;;5.53;2.70;;;;;;;25.83;56.99;101171.06;5249537;33;33788;-85
2023/09/06 09:50:47;;;;;;;5.50;2.70;;;;;;;25.85;56.44;101163.34;5259919;33;34469;-82
2023/09/06 09:53:50;;;;;;;6.82;3.08;;;;;;;26.16;55.72;101161.69;5248628;33;33567;-83
2023/09/06 09:57:03;;;;;;;3.80;2.28;;;;;;;26.35;54.67;101156.59;5262224;33;34085;-83
2023/09/06 10:00:08;;;;;;;4.65;2.67;;;;;;;26.65;49.86;101152.44;5290500;33;33487;-83
2023/09/06 10:03:15;;;;;;;3.22;2.40;;;;;;;26.83;49.75;101156.69;5290172;33;34598;-83
2023/09/06 10:06:19;;;;;;;2.40;2.20;;;;;;;26.92;49.32;101149.56;5265265;33;33771;-83
2023/09/06 10:09:22;;;;;;;3.00;2.12;;;;;;;27.26;46.50;101149.16;5251767;33;34792;-82
2023/09/06 10:12:28;;;;;;;2.90;2.40;;;;;;;27.28;47.10;101141.44;5285727;33;35207;-83
2023/09/06 10:15:32;;;;;;;3.58;2.47;;;;;;;27.18;46.52;101144.19;5304379;33;33466;-83
2023/09/06 10:18:36;;;;;;;3.12;2.17;;;;;;;27.16;48.53;101149.97;5286358;33;33532;-83
2023/09/06 10:21:42;;;;;;;3.25;2.10;;;;;;;27.31;48.16;101144.50;5277502;33;33503;-83
2023/09/06 10:24:51;;;;;;;3.60;2.30;;;;;;;27.54;46.95;101145.13;5277026;33;33812;-82
2023/09/06 10:27:56;;;;;;;3.05;2.17;;;;;;;27.58;42.69;101137.94;5304088;33;33453;-82
2023/09/06 10:31:07;;;;;;;2.62;2.28;;;;;;;27.82;43.55;101141.06;5271960;33;34222;-87
2023/09/06 10:34:12;;;;;;;2.30;2.00;;;;;;;28.15;43.53;101136.09;5288625;33;33509;-84
2023/09/06 10:37:15;;;;;;;2.08;1.87;;;;;;;28.19;43.32;101132.50;5268739;33;33931;-83
2023/09/06 10:40:19;;;;;;;2.08;1.90;;;;;;;28.35;42.07;101132.50;5272416;33;33721;-84
2023/09/06 10:43:28;;;;;;;2.60;2.17;;;;;;;28.21;40.67;101132.22;5264682;33;33729;-83
2023/09/06 10:46:32;;;;;;;2.10;1.80;;;;;;;28.55;42.08;101128.87;5277085;33;34762;-84
2023/09/06 10:49:35;;;;;;;2.22;2.03;;;;;;;28.71;38.79;101130.53;5279809;33;33805;-83
2023/09/06 10:52:48;;;;;;;2.42;2.05;;;;;;;28.89;39.01;101126.31;5277378;33;33605;-83
2023/09/06 10:55:52;;;;;;;2.30;2.10;;;;;;;29.27;40.69;101119.25;5289383;33;34639;-83
2023/09/06 10:58:57;;;;;;;2.42;2.10;;;;;;;29.95;37.19;101123.28;5253803;33;33865;-84
2023/09/06 11:02:07;;;;;;;2.17;1.92;;;;;;;30.25;37.23;101122.22;5289807;33;33614;-83
2023/09/06 11:05:30;;;;;;;5.15;2.10;;;;;;;30.17;35.20;101120.03;5289430;33;33566;-83
2023/09/06 11:08:35;;;;;;;3.83;2.03;;;;;;;30.63;34.96;101106.56;5284765;33;33509;-83
2023/09/06 11:11:38;;;;;;;2.85;1.87;;;;;;;31.22;35.00;101103.66;5266212;33;34701;-83
2023/09/06 11:14:46;;;;;;;2.50;2.10;;;;;;;31.65;34.41;101110.03;5289876;33;33936;-83
2023/09/06 11:17:52;;;;;;;4.00;2.30;;;;;;;31.73;33.74;101106.53;5289968;33;34772;-83
2023/09/06 11:20:55;;;;;;;2.47;1.87;;;;;;;31.97;31.08;101106.47;5293361;33;33932;-84
2023/09/06 11:23:58;;;;;;;4.80;2.00;;;;;;;32.51;30.68;101101.34;5288769;33;35577;-84
2023/09/06 11:27:19;;;;;;;2.35;1.95;;;;;;;32.42;30.43;101092.84;5264546;33;33901;-84
2023/09/06 11:30:23;;;;;;;1.87;1.77;;;;;;;32.74;31.63;101086.38;5290078;33;33922;-84
2023/09/06 11:33:30;;;;;;;2.80;2.03;;;;;;;33.58;30.13;101084.31;5275620;33;33851;-84
2023/09/06 11:36:33;;;;;;;2.28;1.65;;;;;;;34.23;27.33;101089.41;5289823;33;33806;-84
2023/09/06 11:39:40;;;;;;;2.70;1.77;;;;;;;35.25;27.45;101084.84;5278532;33;35133;-84
2023/09/06 11:42:47;;;;;;;3.45;1.85;;;;;;;35.33;25.64;101072.84;5289494;33;34153;-88
2023/09/06 11:45:53;;;;;;;4.47;2.17;;;;;;;36.00;24.55;101079.91;5289525;33;33899;-88
2023/09/06 11:48:56;;;;;;;3.00;1.77;;;;;;;36.84;23.67;101060.66;5264972;33;34861;-85
2023/09/06 11:52:04;;;;;;;2.90;1.77;;;;;;;38.44;21.75;101065.09;5289774;33;33837;-85
2023/09/06 11:55:09;;;;;;;;;;;;;;;38.88;22.12;101059.72;5290324;33;33906;-83
2023/09/06 11:58:20;;;;;;;1.90;1.60;;;;;;;39.03;21.87;101058.97;5290045;33;34195;-83
2023/09/06 12:01:24;;;;;;;1.67;1.58;;;;;;;39.80;20.63;101055.22;5297446;33;33945;-82
2023/09/06 12:04:29;;;;;;;2.37;1.87;;;;;;;40.05;20.82;101050.28;5307839;33;34029;-83
2023/09/06 12:07:33;;;;;;;2.47;1.80;;;;;;;40.60;18.68;101048.44;5289379;33;34629;-83
2023/09/06 12:10:39;;;;;;;2.50;1.87;;;;;;;40.17;19.16;101053.00;5281492;33;33884;-83
2023/09/06 12:13:42;;;;;;;2.78;1.65;;;;;;;41.30;18.41;101047.66;5278628;33;33942;-82
2023/09/06 12:16:46;;;;;;;3.05;1.98;;;;;;;41.08;17.59;101035.09;5290134;33;34713;-83
2023/09/06 12:19:58;;;;;;;2.92;1.70;;;;;;;40.71;18.24;101028.97;5289082;33;34823;-83
2023/09/06 12:23:04;;;;;;;2.30;1.65;;;;;;;40.42;19.86;101028.25;5289698;33;33576;-83
2023/09/06 12:26:07;;;;;;;2.28;1.27;;;;;;;41.20;17.52;101034.97;5289422;33;34484;-83
2023/09/06 12:29:10;;;;;;;2.03;1.40;;;;;;;42.66;17.19;101029.63;5288408;33;34020;-83
2023/09/06 12:32:13;;;;;;;1.75;1.65;;;;;;;44.21;16.28;101025.47;5276621;33;34527;-83
2023/09/06 12:35:17;;;;;;;1.55;1.45;;;;;;;43.27;15.92;101031.31;5265105;33;34328;-82
2023/09/06 12:38:19;;;;;;;1.77;1.67;;;;;;;43.82;16.66;101023.06;5278162;33;34036;-83
2023/09/06 12:41:22;;;;;;;2.58;1.52;;;;;;;42.82;15.92;101030.28;5252100;33;33529;-82
2023/09/06 12:44:25;;;;;;;2.08;1.37;;;;;;;44.54;14.61;101023.72;5268177;33;33754;-82
2023/09/06 12:47:28;;;;;;;1.52;1.42;;;;;;;43.96;14.42;101022.41;5269507;33;33903;-83
2023/09/06 12:50:31;;;;;;;1.60;1.50;;;;;;;44.52;15.76;101015.59;5264177;33;33387;-83
2023/09/06 12:53:36;;;;;;;3.05;1.50;;;;;;;44.32;15.22;101006.50;5265103;33;33448;-83
2023/09/06 12:56:39;;;;;;;1.80;1.60;;;;;;;44.22;14.68;100995.88;5290053;33;33862;-83
2023/09/06 12:59:42;;;;;;;1.83;1.35;;;;;;;44.57;15.78;101003.03;5270108;33;33918;-84
2023/09/06 13:02:45;;;;;;;1.55;1.45;;;;;;;44.21;15.05;100996.28;5265044;33;34074;-84
2023/09/06 13:05:48;;;;;;;1.70;1.60;;;;;;;44.06;14.17;100995.34;5272187;33;34722;-83
2023/09/06 13:08:52;;;;;;;2.75;1.52;;;;;;;45.74;13.84;100987.72;5265314;33;35074;-82
2023/09/06 13:11:58;;;;;;;1.52;1.30;;;;;;;46.23;13.33;100977.59;5259513;33;35162;-83
2023/09/06 13:15:02;;;;;;;2.95;1.87;;;;;;;45.40;13.92;100981.53;5247731;33;34183;-82
2023/09/06 13:18:05;;;;;;;2.53;1.60;;;;;;;45.58;13.46;100973.91;5273023;33;34421;-83
2023/09/06 13:21:08;;;;;;;3.30;1.42;;;;;;;46.95;12.97;100977.44;5260864;33;34053;-83
2023/09/06 13:24:12;;;;;;;1.30;1.20;;;;;;;45.51;13.24;100984.44;5283836;33;34796;-83
2023/09/06 13:27:15;;;;;;;2.12;1.62;;;;;;;46.45;13.46;100975.53;5271253;33;33610;-83
2023/09/06 13:30:18;;;;;;;3.35;1.60;;;;;;;45.50;13.19;100980.75;5284928;33;33663;-87
2023/09/06 13:33:21;;;;;;;2.83;1.75;;;;;;;45.35;13.33;100971.38;5283079;33;33816;-88
2023/09/06 13:36:25;;;;;;;6.28;1.80;;;;;;;45.13;13.77;100961.16;5272579;33;33858;-88
2023/09/06 13:39:27;;;;;;;2.75;1.50;;;;;;;45.47;14.03;100962.47;5265363;33;33815;-85
2023/09/06 13:42:33;;;;;;;1.48;1.35;;;;;;;46.70;12.70;100963.31;5274691;33;35039;-83
2023/09/06 13:45:36;;;;;;;3.22;1.58;;;;;;;45.50;13.47;100960.84;5284266;33;33841;-83
2023/09/06 13:48:39;;;;;;;2.10;1.90;;;;;;;45.14;13.87;100949.41;5258682;33;34839;-84
2023/09/06 13:51:42;;;;;;;3.65;1.90;;;;;;;45.23;13.92;100952.66;5278396;33;35552;-84
2023/09/06 13:54:46;;;;;;;4.00;2.22;;;;;;;44.94;13.90;100954.56;5271525;33;33973;-84
2023/09/06 13:57:49;;;;;;;1.95;1.85;;;;;;;44.71;13.83;100956.88;5260701;33;34759;-83
2023/09/06 14:00:56;;;;;;;1.90;1.58;;;;;;;44.41;13.68;100951.44;5269612;33;33936;-82
2023/09/06 14:03:59;;;;;;;8.25;1.87;;;;;;;44.04;14.56;100943.81;5264253;33;33550;-82
2023/09/06 14:07:02;;;;;;;3.53;1.90;;;;;;;42.38;15.71;100942.22;5252230;33;34839;-82
2023/09/06 14:10:05;;;;;;;2.25;1.75;;;;;;;39.37;17.85;100941.25;5270168;33;33611;-82
2023/09/06 14:13:11;;;;;;;3.30;1.98;;;;;;;37.29;20.89;100942.09;5273448;33;34725;-83
2023/09/06 14:16:34;;;;;;;3.65;1.90;;;;;;;34.81;23.54;100946.81;5253839;33;34100;-82
2023/09/06 14:19:37;;;;;;;11.88;2.70;;;;;;;33.87;24.35;100935.81;5263531;33;35234;-82
2023/09/06 14:22:58;;;;;;;4.93;2.08;;;;;;;33.22;25.40;100936.38;5264101;33;33771;-82
2023/09/06 14:26:21;;;;;;;2.28;2.00;;;;;;;32.51;26.00;100931.31;5274853;33;34097;-82
2023/09/06 14:29:24;;;;;;;4.15;2.47;;;;;;;31.76;27.18;100935.25;5275492;33;34272;-82
2023/09/06 14:32:27;;;;;;;2.55;1.67;;;;;;;31.13;29.00;100934.63;5278157;33;33847;-84
2023/09/06 14:35:44;;;;;;;2.47;2.28;;;;;;;30.89;28.81;100929.16;5282332;33;34966;-84
2023/09/06 14:38:47;;;;;;;6.82;2.30;;;;;;;30.35;29.50;100932.37;5279059;33;33917;-84
2023/09/06 14:41:50;;;;;;;2.85;2.22;;;;;;;29.92;29.27;100929.50;5273974;33;34847;-83
2023/09/06 14:44:53;;;;;;;3.00;2.10;;;;;;;29.54;30.71;100916.28;5279407;33;33954;-83
2023/09/06 14:47:57;;;;;;;3.37;2.40;;;;;;;29.34;31.00;100924.78;5267736;33;33990;-83
2023/09/06 14:51:00;;;;;;;4.40;2.22;;;;;;;28.99;31.83;100931.38;5277145;33;34429;-87
2023/09/06 14:54:04;;;;;;;3.30;2.25;;;;;;;28.42;33.14;100928.09;5276950;33;33490;-88
2023/09/06 14:57:07;;;;;;;3.15;2.60;;;;;;;28.38;33.70;100927.00;5265513;33;34839;-84
2023/09/06 15:00:11;;;;;;;3.75;2.28;;;;;;;28.30;33.46;100920.09;5293144;33;33435;-84
2023/09/06 15:03:14;;;;;;;2.28;2.05;;;;;;;28.19;33.48;100919.28;5272780;33;33717;-83
2023/09/06 15:06:17;;;;;;;2.67;2.47;;;;;;;27.87;34.14;100919.66;5264871;33;33744;-84
2023/09/06 15:09:20;;;;;;;2.60;2.40;;;;;;;27.68;34.06;100915.81;5287054;33;32737;-84
2023/09/06 15:12:24;;;;;;;2.97;2.40;;;;;;;27.61;35.94;100916.06;5266245;33;33965;-84
2023/09/06 15:15:27;;;;;;;3.03;2.37;;;;;;;27.30;35.35;100916.13;5278653;33;33890;-84
2023/09/06 15:18:30;;;;;;;3.65;2.40;;;;;;;27.24;35.49;100922.75;5292043;33;276574;-84
2023/09/06 15:21:34;;;;;;;2.75;2.40;;;;;;;27.36;34.78;100917.78;5300381;33;34639;-84
2023/09/06 15:24:37;;;;;;;2.92;2.08;;;;;;;27.19;35.26;100913.62;5289492;33;35596;-83
2023/09/06 15:27:40;;;;;;;3.83;2.40;;;;;;;27.00;36.47;100914.13;5265544;33;33754;-84
2023/09/06 15:30:43;;;;;;;2.75;2.50;;;;;;;26.98;36.18;100909.97;5289673;33;33873;-84
2023/09/06 15:33:47;;;;;;;3.80;2.55;;;;;;;26.85;36.56;100919.63;5270891;33;33273;-83
2023/09/06 15:36:50;;;;;;;3.58;2.40;;;;;;;26.76;36.63;100924.84;5308165;33;34363;-83
2023/09/06 15:39:53;;;;;;;4.70;2.45;;;;;;;26.73;37.08;100927.31;5282592;33;33791;-83
2023/09/06 15:42:57;;;;;;;3.62;2.62;;;;;;;26.68;36.71;100922.63;5294747;33;34665;-83
2023/09/06 15:46:00;;;;;;;2.65;2.30;;;;;;;26.72;37.02;100928.44;5283118;33;34706;-83
2023/09/06 15:49:06;;;;;;;2.50;2.30;;;;;;;26.60;36.74;100923.16;5294461;33;34429;-83
2023/09/06 15:52:09;;;;;;;5.90;2.33;;;;;;;26.54;37.07;100922.31;5294540;33;33432;-83
2023/09/06 15:55:13;;;;;;;2.75;2.33;;;;;;;26.46;37.17;100931.91;5308665;33;35024;-83
2023/09/06 15:58:16;;;;;;;3.97;2.33;;;;;;;26.29;37.30;100935.97;5307948;33;34475;-83
2023/09/06 16:01:19;;;;;;;3.78;2.83;;;;;;;26.27;37.50;100927.12;5296076;33;34842;-83
2023/09/06 16:04:22;;;;;;;2.42;2.22;;;;;;;26.20;38.33;100933.72;5295229;33;33844;-83
2023/09/06 16:07:25;;;;;;;4.85;2.37;;;;;;;26.10;37.77;100928.16;5294990;33;33827;-83
2023/09/06 16:10:29;;;;;;;5.00;2.40;;;;;;;26.05;38.05;100927.31;5308788;33;34191;-83
2023/09/06 16:13:31;;;;;;;3.80;2.45;;;;;;;25.97;37.86;100929.50;5283442;33;34632;-83
2023/09/06 16:16:36;;;;;;;2.80;2.30;;;;;;;26.04;37.81;100922.91;5283813;33;33900;-83
2023/09/06 16:19:41;;;;;;;2.75;2.30;;;;;;;25.90;37.83;100920.59;5295274;33;33829;-83
2023/09/06 16:22:45;;;;;;;3.37;2.22;;;;;;;25.79;38.24;100924.34;5294406;33;35239;-83
2023/09/06 16:25:48;;;;;;;3.00;2.40;;;;;;;25.72;38.41;100921.84;5282739;33;33464;-83
2023/09/06 16:28:51;;;;;;;4.03;2.42;;;;;;;25.63;38.84;100931.72;5282900;33;34416;-83
2023/09/06 16:31:54;;;;;;;3.90;2.33;;;;;;;25.60;39.24;100935.00;5295126;33;34688;-83
2023/09/06 16:34:57;;;;;;;3.70;2.55;;;;;;;25.59;38.64;100938.00;5288553;33;33644;-83
2023/09/06 16:38:00;;;;;;;3.67;2.33;;;;;;;25.55;38.79;100938.53;5298196;33;33904;-83
2023/09/06 16:41:03;;;;;;;4.25;2.70;;;;;;;25.47;39.76;100939.00;5298501;33;34437;-83
2023/09/06 16:44:06;;;;;;;4.40;2.58;;;;;;;25.39;39.72;100938.66;5299535;33;34628;-83
2023/09/06 16:47:09;;;;;;;3.67;2.70;;;;;;;25.27;40.01;100934.19;5308710;33;34207;-83
2023/09/06 16:50:13;;;;;;;5.07;2.55;;;;;;;25.13;40.63;100943.94;5294446;33;33633;-83
2023/09/06 16:53:19;;;;;;;3.78;2.80;;;;;;;25.02;41.18;100933.91;5282503;33;33885;-83
2023/09/06 16:56:22;;;;;;;4.97;2.60;;;;;;;24.92;41.78;100942.88;5282698;33;34501;-83
2023/09/06 16:59:25;;;;;;;3.85;2.28;;;;;;;24.82;41.97;100945.53;5294501;33;34592;-83
2023/09/06 17:02:28;;;;;;;2.95;2.40;;;;;;;24.72;42.50;100948.19;5307412;33;34213;-83
2023/09/06 17:05:33;;;;;;;3.75;2.72;;;;;;;24.57;43.07;100944.19;5308405;33;33745;-87
2023/09/06 17:08:36;;;;;;;4.15;2.53;;;;;;;24.49;43.88;100950.13;5295761;33;33802;-87
2023/09/06 17:11:40;;;;;;;3.25;2.60;;;;;;;24.36;43.99;100951.28;5283165;33;33811;-87
2023/09/06 17:14:43;;;;;;;3.53;2.58;;;;;;;24.28;44.19;100946.25;5294248;33;35228;-84
2023/09/06 17:17:49;;;;;;;4.25;3.20;;;;;;;24.17;45.19;100947.22;5294869;33;32794;-85
2023/09/06 17:20:52;;;;;;;2.97;2.67;;;;;;;24.04;46.42;100950.31;5307722;33;34709;-84
2023/09/06 17:23:56;;;;;;;5.97;2.90;;;;;;;23.91;47.80;100955.09;5294863;33;34873;-84
2023/09/06 17:27:08;;;;;;;3.25;2.87;;;;;;;23.80;47.32;100955.19;5295808;33;33908;-83
2023/09/06 17:30:16;;;;;;;3.80;2.53;;;;;;;23.64;47.92;100956.84;5318469;33;34350;-83
2023/09/06 17:33:25;;;;;;;3.75;2.70;;;;;;;23.62;48.66;100959.84;5317814;33;34420;-83
2023/09/06 17:36:29;;;;;;;4.68;2.70;;;;;;;23.51;49.54;100971.75;5295468;33;33806;-83
2023/09/06 17:39:32;;;;;;;3.22;2.78;;;;;;;23.34;51.90;100973.63;5307973;33;33455;-83
2023/09/06 17:42:37;;;;;;;4.85;2.75;;;;;;;23.21;53.26;100975.63;5308214;33;33550;-83
2023/09/06 17:45:40;;;;;;;4.05;3.00;;;;;;;23.06;52.77;100972.59;5312302;33;34285;-83
2023/09/06 17:48:43;;;;;;;3.33;2.92;;;;;;;22.99;52.51;100982.87;5311007;33;34697;-83
2023/09/06 17:51:46;;;;;;;5.90;3.00;;;;;;;22.85;55.51;100988.66;5290154;33;34740;-83
2023/09/06 17:54:50;;;;;;;5.00;3.28;;;;;;;22.67;56.84;100983.34;5282406;33;34782;-83
2023/09/06 17:57:53;;;;;;;5.07;2.90;;;;;;;22.55;58.00;100993.50;5293263;33;35093;-83
2023/09/06 18:00:56;;;;;;;4.60;2.70;;;;;;;22.50;56.17;101002.47;5293456;33;35141;-83
2023/09/06 18:04:00;;;;;;;7.03;3.15;;;;;;;22.45;56.72;100994.13;5293484;33;34404;-83
2023/09/06 18:07:04;;;;;;;5.47;2.85;;;;;;;22.41;57.11;100998.44;5284274;33;34643;-83
2023/09/06 18:10:10;;;;;;;5.60;3.10;;;;;;;22.36;56.59;100999.16;5295729;33;34528;-83
2023/09/06 18:13:14;;;;;;;4.07;3.00;;;;;;;22.31;63.08;101007.28;5308342;33;33452;-83